sensor_id;sensor_type;location;lat;lon;timestamp;P1;durP1;ratioP1;P2;durP2;ratioP2
9218;SDS011;4644;48.858;9.184;2023-02-28T00:00:13;4.17;;;2.10;;
9218;SDS011;4644;48.858;9.184;2023-02-28T00:02:41;2.20;;;2.00;;
9218;SDS011;4644;48.858;9.184;2023-02-28T00:05:12;3.13;;;2.50;;
9218;SDS011;4644;48.858;9.184;2023-02-28T00:07:40;3.90;;;2.20;;
9218;SDS011;4644;48.858;9.184;2023-02-28T00:10:10;3.33;;;2.23;;
9218;SDS011;4644;48.858;9.184;2023-02-28T00:12:38;2.80;;;2.50;;
9218;SDS011;4644;48.858;9.184;2023-02-28T00:15:06;2.50;;;2.20;;
9218;SDS011;4644;48.858;9.184;2023-02-28T00:17:33;3.23;;;2.33;;
9218;SDS011;4644;48.858;9.184;2023-02-28T00:20:01;3.07;;;2.17;;
9218;SDS011;4644;48.858;9.184;2023-02-28T00:22:38;3.47;;;2.50;;
9218;SDS011;4644;48.858;9.184;2023-02-28T00:25:07;2.87;;;2.20;;
9218;SDS011;4644;48.858;9.184;2023-02-28T00:27:35;2.60;;;2.37;;
9218;SDS011;4644;48.858;9.184;2023-02-28T00:30:07;3.63;;;2.47;;
9218;SDS011;4644;48.858;9.184;2023-02-28T00:32:35;2.77;;;2.50;;
9218;SDS011;4644;48.858;9.184;2023-02-28T00:35:03;2.40;;;2.20;;
9218;SDS011;4644;48.858;9.184;2023-02-28T00:37:31;3.27;;;2.50;;
9218;SDS011;4644;48.858;9.184;2023-02-28T00:39:59;3.47;;;2.40;;
9218;SDS011;4644;48.858;9.184;2023-02-28T00:42:29;3.47;;;2.43;;
9218;SDS011;4644;48.858;9.184;2023-02-28T00:44:56;4.30;;;2.73;;
9218;SDS011;4644;48.858;9.184;2023-02-28T00:47:23;3.27;;;2.60;;
9218;SDS011;4644;48.858;9.184;2023-02-28T00:49:50;4.03;;;3.03;;
9218;SDS011;4644;48.858;9.184;2023-02-28T00:52:17;7.13;;;2.67;;
9218;SDS011;4644;48.858;9.184;2023-02-28T00:54:44;3.80;;;2.70;;
9218;SDS011;4644;48.858;9.184;2023-02-28T00:57:13;4.73;;;2.80;;
9218;SDS011;4644;48.858;9.184;2023-02-28T00:59:40;5.53;;;2.93;;
9218;SDS011;4644;48.858;9.184;2023-02-28T01:02:06;4.90;;;2.67;;
9218;SDS011;4644;48.858;9.184;2023-02-28T01:04:34;3.57;;;2.90;;
9218;SDS011;4644;48.858;9.184;2023-02-28T01:07:01;3.93;;;2.90;;
9218;SDS011;4644;48.858;9.184;2023-02-28T01:09:28;5.50;;;3.00;;
9218;SDS011;4644;48.858;9.184;2023-02-28T01:11:56;3.10;;;2.73;;
9218;SDS011;4644;48.858;9.184;2023-02-28T01:14:24;3.27;;;2.80;;
9218;SDS011;4644;48.858;9.184;2023-02-28T01:16:51;4.40;;;2.63;;
9218;SDS011;4644;48.858;9.184;2023-02-28T01:19:18;3.47;;;2.93;;
9218;SDS011;4644;48.858;9.184;2023-02-28T01:21:45;4.17;;;2.93;;
9218;SDS011;4644;48.858;9.184;2023-02-28T01:24:13;3.87;;;3.07;;
9218;SDS011;4644;48.858;9.184;2023-02-28T01:26:40;4.33;;;3.00;;
9218;SDS011;4644;48.858;9.184;2023-02-28T01:29:07;4.47;;;2.90;;
9218;SDS011;4644;48.858;9.184;2023-02-28T01:31:35;4.33;;;2.73;;
9218;SDS011;4644;48.858;9.184;2023-02-28T01:34:02;3.40;;;2.90;;
9218;SDS011;4644;48.858;9.184;2023-02-28T01:36:29;2.87;;;2.67;;
9218;SDS011;4644;48.858;9.184;2023-02-28T01:38:56;3.53;;;3.00;;
9218;SDS011;4644;48.858;9.184;2023-02-28T01:41:24;3.27;;;2.70;;
9218;SDS011;4644;48.858;9.184;2023-02-28T01:43:54;4.90;;;2.90;;
9218;SDS011;4644;48.858;9.184;2023-02-28T01:46:28;4.43;;;3.20;;
9218;SDS011;4644;48.858;9.184;2023-02-28T01:48:58;4.00;;;3.10;;
9218;SDS011;4644;48.858;9.184;2023-02-28T01:51:31;3.50;;;2.70;;
9218;SDS011;4644;48.858;9.184;2023-02-28T01:54:03;3.43;;;2.93;;
9218;SDS011;4644;48.858;9.184;2023-02-28T01:56:38;3.60;;;3.07;;
9218;SDS011;4644;48.858;9.184;2023-02-28T01:59:08;3.73;;;3.30;;
9218;SDS011;4644;48.858;9.184;2023-02-28T02:01:37;4.50;;;2.97;;
9218;SDS011;4644;48.858;9.184;2023-02-28T02:04:06;4.27;;;3.07;;
9218;SDS011;4644;48.858;9.184;2023-02-28T02:06:34;4.47;;;3.00;;
9218;SDS011;4644;48.858;9.184;2023-02-28T02:09:04;5.30;;;3.23;;
9218;SDS011;4644;48.858;9.184;2023-02-28T02:11:31;4.83;;;3.07;;
9218;SDS011;4644;48.858;9.184;2023-02-28T02:14:09;3.87;;;3.27;;
9218;SDS011;4644;48.858;9.184;2023-02-28T02:16:57;4.27;;;2.83;;
9218;SDS011;4644;48.858;9.184;2023-02-28T02:19:45;3.40;;;3.10;;
9218;SDS011;4644;48.858;9.184;2023-02-28T02:22:36;4.57;;;3.47;;
9218;SDS011;4644;48.858;9.184;2023-02-28T02:25:23;3.77;;;3.10;;
9218;SDS011;4644;48.858;9.184;2023-02-28T02:28:16;4.63;;;3.20;;
9218;SDS011;4644;48.858;9.184;2023-02-28T02:31:22;4.27;;;3.40;;
9218;SDS011;4644;48.858;9.184;2023-02-28T02:34:30;4.13;;;3.10;;
9218;SDS011;4644;48.858;9.184;2023-02-28T02:37:13;4.07;;;3.13;;
9218;SDS011;4644;48.858;9.184;2023-02-28T02:39:47;5.60;;;3.27;;
9218;SDS011;4644;48.858;9.184;2023-02-28T02:42:21;5.10;;;3.30;;
9218;SDS011;4644;48.858;9.184;2023-02-28T02:44:55;4.30;;;3.50;;
9218;SDS011;4644;48.858;9.184;2023-02-28T02:47:27;3.47;;;2.87;;
9218;SDS011;4644;48.858;9.184;2023-02-28T02:49:59;4.57;;;3.17;;
9218;SDS011;4644;48.858;9.184;2023-02-28T02:52:32;6.27;;;3.40;;
9218;SDS011;4644;48.858;9.184;2023-02-28T02:55:03;5.27;;;3.30;;
9218;SDS011;4644;48.858;9.184;2023-02-28T02:57:32;4.00;;;3.40;;
9218;SDS011;4644;48.858;9.184;2023-02-28T03:00:03;7.60;;;3.60;;
9218;SDS011;4644;48.858;9.184;2023-02-28T03:02:33;3.50;;;3.17;;
9218;SDS011;4644;48.858;9.184;2023-02-28T03:05:04;5.67;;;3.73;;
9218;SDS011;4644;48.858;9.184;2023-02-28T03:07:39;3.63;;;3.20;;
9218;SDS011;4644;48.858;9.184;2023-02-28T03:13:02;4.40;;;3.40;;
9218;SDS011;4644;48.858;9.184;2023-02-28T03:15:42;4.13;;;3.50;;
9218;SDS011;4644;48.858;9.184;2023-02-28T03:18:24;4.77;;;3.27;;
9218;SDS011;4644;48.858;9.184;2023-02-28T03:21:03;4.67;;;3.73;;
9218;SDS011;4644;48.858;9.184;2023-02-28T03:23:42;4.63;;;3.67;;
9218;SDS011;4644;48.858;9.184;2023-02-28T03:26:17;4.63;;;3.33;;
9218;SDS011;4644;48.858;9.184;2023-02-28T03:28:51;4.23;;;3.23;;
9218;SDS011;4644;48.858;9.184;2023-02-28T03:31:22;6.37;;;3.70;;
9218;SDS011;4644;48.858;9.184;2023-02-28T03:33:55;5.57;;;3.40;;
9218;SDS011;4644;48.858;9.184;2023-02-28T03:36:29;5.87;;;3.60;;
9218;SDS011;4644;48.858;9.184;2023-02-28T03:39:02;4.30;;;3.70;;
9218;SDS011;4644;48.858;9.184;2023-02-28T03:41:32;3.47;;;3.17;;
9218;SDS011;4644;48.858;9.184;2023-02-28T03:44:06;4.40;;;3.47;;
9218;SDS011;4644;48.858;9.184;2023-02-28T03:46:40;4.70;;;3.93;;
9218;SDS011;4644;48.858;9.184;2023-02-28T03:49:14;4.23;;;3.60;;
9218;SDS011;4644;48.858;9.184;2023-02-28T03:51:46;5.27;;;4.03;;
9218;SDS011;4644;48.858;9.184;2023-02-28T03:54:15;5.43;;;3.83;;
9218;SDS011;4644;48.858;9.184;2023-02-28T03:56:47;3.50;;;3.20;;
9218;SDS011;4644;48.858;9.184;2023-02-28T03:59:18;4.40;;;3.87;;
9218;SDS011;4644;48.858;9.184;2023-02-28T04:01:50;5.63;;;3.83;;
9218;SDS011;4644;48.858;9.184;2023-02-28T04:04:17;4.40;;;3.50;;
9218;SDS011;4644;48.858;9.184;2023-02-28T04:06:47;4.53;;;3.80;;
9218;SDS011;4644;48.858;9.184;2023-02-28T04:09:17;4.13;;;3.63;;
9218;SDS011;4644;48.858;9.184;2023-02-28T04:11:45;4.60;;;4.00;;
9218;SDS011;4644;48.858;9.184;2023-02-28T04:14:16;3.67;;;3.37;;
9218;SDS011;4644;48.858;9.184;2023-02-28T04:16:43;6.37;;;4.00;;
9218;SDS011;4644;48.858;9.184;2023-02-28T04:19:11;4.40;;;3.83;;
9218;SDS011;4644;48.858;9.184;2023-02-28T04:21:40;6.17;;;3.40;;
9218;SDS011;4644;48.858;9.184;2023-02-28T04:24:11;4.97;;;4.00;;
9218;SDS011;4644;48.858;9.184;2023-02-28T04:26:40;3.77;;;3.37;;
9218;SDS011;4644;48.858;9.184;2023-02-28T04:29:09;3.67;;;3.23;;
9218;SDS011;4644;48.858;9.184;2023-02-28T04:31:37;4.53;;;3.80;;
9218;SDS011;4644;48.858;9.184;2023-02-28T04:34:04;5.23;;;3.33;;
9218;SDS011;4644;48.858;9.184;2023-02-28T04:36:31;5.60;;;4.10;;
9218;SDS011;4644;48.858;9.184;2023-02-28T04:38:58;4.80;;;3.80;;
9218;SDS011;4644;48.858;9.184;2023-02-28T04:41:27;4.70;;;4.07;;
9218;SDS011;4644;48.858;9.184;2023-02-28T04:43:54;5.40;;;4.00;;
9218;SDS011;4644;48.858;9.184;2023-02-28T04:46:22;4.30;;;3.33;;
9218;SDS011;4644;48.858;9.184;2023-02-28T04:48:49;5.03;;;4.00;;
9218;SDS011;4644;48.858;9.184;2023-02-28T04:51:17;5.33;;;3.60;;
9218;SDS011;4644;48.858;9.184;2023-02-28T04:53:45;6.07;;;4.23;;
9218;SDS011;4644;48.858;9.184;2023-02-28T04:56:14;5.50;;;4.33;;
9218;SDS011;4644;48.858;9.184;2023-02-28T04:58:44;4.03;;;3.60;;
9218;SDS011;4644;48.858;9.184;2023-02-28T05:01:18;5.40;;;3.87;;
9218;SDS011;4644;48.858;9.184;2023-02-28T05:03:47;5.57;;;3.93;;
9218;SDS011;4644;48.858;9.184;2023-02-28T05:06:16;4.60;;;3.80;;
9218;SDS011;4644;48.858;9.184;2023-02-28T05:08:43;5.33;;;4.10;;
9218;SDS011;4644;48.858;9.184;2023-02-28T05:11:13;5.33;;;4.17;;
9218;SDS011;4644;48.858;9.184;2023-02-28T05:13:44;5.77;;;4.17;;
9218;SDS011;4644;48.858;9.184;2023-02-28T05:16:11;5.17;;;4.10;;
9218;SDS011;4644;48.858;9.184;2023-02-28T05:18:38;6.37;;;4.37;;
9218;SDS011;4644;48.858;9.184;2023-02-28T05:21:05;6.33;;;4.10;;
9218;SDS011;4644;48.858;9.184;2023-02-28T05:23:43;5.90;;;4.30;;
9218;SDS011;4644;48.858;9.184;2023-02-28T05:26:10;6.13;;;4.37;;
9218;SDS011;4644;48.858;9.184;2023-02-28T05:28:37;4.90;;;4.30;;
9218;SDS011;4644;48.858;9.184;2023-02-28T05:31:05;4.13;;;3.73;;
9218;SDS011;4644;48.858;9.184;2023-02-28T05:33:32;4.90;;;4.40;;
9218;SDS011;4644;48.858;9.184;2023-02-28T05:35:59;6.43;;;4.47;;
9218;SDS011;4644;48.858;9.184;2023-02-28T05:38:26;5.20;;;3.97;;
9218;SDS011;4644;48.858;9.184;2023-02-28T05:40:53;5.97;;;4.30;;
9218;SDS011;4644;48.858;9.184;2023-02-28T05:43:21;8.03;;;4.90;;
9218;SDS011;4644;48.858;9.184;2023-02-28T05:45:48;7.33;;;5.00;;
9218;SDS011;4644;48.858;9.184;2023-02-28T05:48:17;5.30;;;4.43;;
9218;SDS011;4644;48.858;9.184;2023-02-28T05:50:44;6.70;;;4.60;;
9218;SDS011;4644;48.858;9.184;2023-02-28T05:53:12;6.87;;;4.97;;
9218;SDS011;4644;48.858;9.184;2023-02-28T05:55:39;7.33;;;4.87;;
9218;SDS011;4644;48.858;9.184;2023-02-28T05:58:06;7.17;;;4.77;;
9218;SDS011;4644;48.858;9.184;2023-02-28T06:00:33;5.63;;;4.40;;
9218;SDS011;4644;48.858;9.184;2023-02-28T06:03:00;5.73;;;4.50;;
9218;SDS011;4644;48.858;9.184;2023-02-28T06:05:28;6.10;;;4.53;;
9218;SDS011;4644;48.858;9.184;2023-02-28T06:07:55;8.73;;;4.50;;
9218;SDS011;4644;48.858;9.184;2023-02-28T06:10:22;5.43;;;4.53;;
9218;SDS011;4644;48.858;9.184;2023-02-28T06:12:49;7.27;;;4.80;;
9218;SDS011;4644;48.858;9.184;2023-02-28T06:15:16;6.73;;;4.90;;
9218;SDS011;4644;48.858;9.184;2023-02-28T06:17:43;7.50;;;5.20;;
9218;SDS011;4644;48.858;9.184;2023-02-28T06:20:11;6.97;;;4.90;;
9218;SDS011;4644;48.858;9.184;2023-02-28T06:22:40;7.03;;;5.13;;
9218;SDS011;4644;48.858;9.184;2023-02-28T06:25:09;7.07;;;4.83;;
9218;SDS011;4644;48.858;9.184;2023-02-28T06:27:36;6.47;;;4.60;;
9218;SDS011;4644;48.858;9.184;2023-02-28T06:30:03;8.47;;;5.30;;
9218;SDS011;4644;48.858;9.184;2023-02-28T06:32:31;6.77;;;5.10;;
9218;SDS011;4644;48.858;9.184;2023-02-28T06:34:58;9.30;;;5.67;;
9218;SDS011;4644;48.858;9.184;2023-02-28T06:37:25;7.37;;;5.30;;
9218;SDS011;4644;48.858;9.184;2023-02-28T06:39:54;8.97;;;5.63;;
9218;SDS011;4644;48.858;9.184;2023-02-28T06:42:22;8.53;;;5.43;;
9218;SDS011;4644;48.858;9.184;2023-02-28T06:44:50;7.90;;;5.47;;
9218;SDS011;4644;48.858;9.184;2023-02-28T06:47:17;6.40;;;5.17;;
9218;SDS011;4644;48.858;9.184;2023-02-28T06:49:46;6.03;;;4.80;;
9218;SDS011;4644;48.858;9.184;2023-02-28T06:52:14;6.23;;;4.93;;
9218;SDS011;4644;48.858;9.184;2023-02-28T06:54:42;7.20;;;5.00;;
9218;SDS011;4644;48.858;9.184;2023-02-28T06:57:10;6.43;;;4.90;;
9218;SDS011;4644;48.858;9.184;2023-02-28T06:59:37;6.80;;;5.53;;
9218;SDS011;4644;48.858;9.184;2023-02-28T07:02:04;10.07;;;5.53;;
9218;SDS011;4644;48.858;9.184;2023-02-28T07:04:32;7.30;;;4.93;;
9218;SDS011;4644;48.858;9.184;2023-02-28T07:06:59;9.27;;;5.03;;
9218;SDS011;4644;48.858;9.184;2023-02-28T07:09:28;8.07;;;4.93;;
9218;SDS011;4644;48.858;9.184;2023-02-28T07:11:55;7.93;;;5.13;;
9218;SDS011;4644;48.858;9.184;2023-02-28T07:14:24;7.03;;;5.07;;
9218;SDS011;4644;48.858;9.184;2023-02-28T07:16:51;7.57;;;4.90;;
9218;SDS011;4644;48.858;9.184;2023-02-28T07:19:18;5.57;;;4.60;;
9218;SDS011;4644;48.858;9.184;2023-02-28T07:21:45;9.00;;;5.03;;
9218;SDS011;4644;48.858;9.184;2023-02-28T07:24:12;7.83;;;5.07;;
9218;SDS011;4644;48.858;9.184;2023-02-28T07:26:41;7.47;;;5.77;;
9218;SDS011;4644;48.858;9.184;2023-02-28T07:29:08;7.00;;;5.40;;
9218;SDS011;4644;48.858;9.184;2023-02-28T07:31:36;6.83;;;5.30;;
9218;SDS011;4644;48.858;9.184;2023-02-28T07:34:03;8.87;;;6.10;;
9218;SDS011;4644;48.858;9.184;2023-02-28T07:36:30;6.73;;;5.37;;
9218;SDS011;4644;48.858;9.184;2023-02-28T07:38:57;7.17;;;5.17;;
9218;SDS011;4644;48.858;9.184;2023-02-28T07:41:25;8.63;;;5.80;;
9218;SDS011;4644;48.858;9.184;2023-02-28T07:43:53;7.53;;;5.43;;
9218;SDS011;4644;48.858;9.184;2023-02-28T07:46:20;9.67;;;5.97;;
9218;SDS011;4644;48.858;9.184;2023-02-28T07:48:49;8.10;;;5.77;;
9218;SDS011;4644;48.858;9.184;2023-02-28T07:51:16;7.20;;;5.40;;
9218;SDS011;4644;48.858;9.184;2023-02-28T07:53:43;7.20;;;5.60;;
9218;SDS011;4644;48.858;9.184;2023-02-28T07:56:10;9.03;;;5.10;;
9218;SDS011;4644;48.858;9.184;2023-02-28T07:58:37;9.97;;;5.80;;
9218;SDS011;4644;48.858;9.184;2023-02-28T08:01:05;7.60;;;5.57;;
9218;SDS011;4644;48.858;9.184;2023-02-28T08:03:33;6.90;;;5.73;;
9218;SDS011;4644;48.858;9.184;2023-02-28T08:06:01;146.90;;;19.17;;
9218;SDS011;4644;48.858;9.184;2023-02-28T08:08:29;10.30;;;6.30;;
9218;SDS011;4644;48.858;9.184;2023-02-28T08:10:57;8.03;;;5.53;;
9218;SDS011;4644;48.858;9.184;2023-02-28T08:13:25;8.13;;;5.87;;
9218;SDS011;4644;48.858;9.184;2023-02-28T08:15:53;9.20;;;5.67;;
9218;SDS011;4644;48.858;9.184;2023-02-28T08:18:21;8.13;;;5.60;;
9218;SDS011;4644;48.858;9.184;2023-02-28T08:20:49;6.70;;;5.63;;
9218;SDS011;4644;48.858;9.184;2023-02-28T08:23:18;8.03;;;6.07;;
9218;SDS011;4644;48.858;9.184;2023-02-28T08:25:52;7.33;;;5.83;;
9218;SDS011;4644;48.858;9.184;2023-02-28T08:28:19;7.97;;;6.17;;
9218;SDS011;4644;48.858;9.184;2023-02-28T08:30:46;6.73;;;5.27;;
9218;SDS011;4644;48.858;9.184;2023-02-28T08:33:14;8.33;;;5.97;;
9218;SDS011;4644;48.858;9.184;2023-02-28T08:35:41;9.50;;;6.53;;
9218;SDS011;4644;48.858;9.184;2023-02-28T08:38:08;8.10;;;5.83;;
9218;SDS011;4644;48.858;9.184;2023-02-28T08:40:36;9.60;;;6.10;;
9218;SDS011;4644;48.858;9.184;2023-02-28T08:43:03;7.33;;;5.87;;
9218;SDS011;4644;48.858;9.184;2023-02-28T08:45:30;9.17;;;6.30;;
9218;SDS011;4644;48.858;9.184;2023-02-28T08:47:57;8.20;;;6.20;;
9218;SDS011;4644;48.858;9.184;2023-02-28T08:50:24;9.40;;;5.93;;
9218;SDS011;4644;48.858;9.184;2023-02-28T08:52:51;9.17;;;6.70;;
9218;SDS011;4644;48.858;9.184;2023-02-28T08:55:18;10.47;;;6.27;;
9218;SDS011;4644;48.858;9.184;2023-02-28T08:57:47;7.17;;;5.83;;
9218;SDS011;4644;48.858;9.184;2023-02-28T09:00:14;12.90;;;6.20;;
9218;SDS011;4644;48.858;9.184;2023-02-28T09:02:41;8.83;;;6.13;;
9218;SDS011;4644;48.858;9.184;2023-02-28T09:05:08;7.10;;;6.10;;
9218;SDS011;4644;48.858;9.184;2023-02-28T09:07:36;7.03;;;5.77;;
9218;SDS011;4644;48.858;9.184;2023-02-28T09:10:03;8.57;;;6.27;;
9218;SDS011;4644;48.858;9.184;2023-02-28T09:12:32;7.63;;;5.93;;
9218;SDS011;4644;48.858;9.184;2023-02-28T09:15:02;7.30;;;5.80;;
9218;SDS011;4644;48.858;9.184;2023-02-28T09:17:30;8.77;;;6.00;;
9218;SDS011;4644;48.858;9.184;2023-02-28T09:19:57;11.23;;;6.87;;
9218;SDS011;4644;48.858;9.184;2023-02-28T09:22:24;7.87;;;6.10;;
9218;SDS011;4644;48.858;9.184;2023-02-28T09:24:51;8.43;;;6.90;;
9218;SDS011;4644;48.858;9.184;2023-02-28T09:27:18;8.33;;;6.17;;
9218;SDS011;4644;48.858;9.184;2023-02-28T09:29:45;8.47;;;6.33;;
9218;SDS011;4644;48.858;9.184;2023-02-28T09:32:13;7.17;;;5.70;;
9218;SDS011;4644;48.858;9.184;2023-02-28T09:34:41;9.67;;;6.47;;
9218;SDS011;4644;48.858;9.184;2023-02-28T09:37:07;8.13;;;6.50;;
9218;SDS011;4644;48.858;9.184;2023-02-28T09:39:34;11.10;;;7.00;;
9218;SDS011;4644;48.858;9.184;2023-02-28T09:42:02;7.83;;;6.60;;
9218;SDS011;4644;48.858;9.184;2023-02-28T09:44:30;8.70;;;6.53;;
9218;SDS011;4644;48.858;9.184;2023-02-28T09:47:01;8.70;;;6.43;;
9218;SDS011;4644;48.858;9.184;2023-02-28T09:49:37;11.93;;;6.50;;
9218;SDS011;4644;48.858;9.184;2023-02-28T09:52:08;12.83;;;6.83;;
9218;SDS011;4644;48.858;9.184;2023-02-28T09:54:37;9.47;;;6.83;;
9218;SDS011;4644;48.858;9.184;2023-02-28T09:57:06;10.30;;;6.57;;
9218;SDS011;4644;48.858;9.184;2023-02-28T09:59:44;7.63;;;6.23;;
9218;SDS011;4644;48.858;9.184;2023-02-28T10:02:28;10.73;;;6.97;;
9218;SDS011;4644;48.858;9.184;2023-02-28T10:05:20;8.97;;;6.23;;
9218;SDS011;4644;48.858;9.184;2023-02-28T10:07:56;7.23;;;6.43;;
9218;SDS011;4644;48.858;9.184;2023-02-28T10:10:35;9.50;;;7.30;;
9218;SDS011;4644;48.858;9.184;2023-02-28T10:13:06;10.03;;;7.27;;
9218;SDS011;4644;48.858;9.184;2023-02-28T10:15:40;7.90;;;6.50;;
9218;SDS011;4644;48.858;9.184;2023-02-28T10:18:11;6.77;;;6.07;;
9218;SDS011;4644;48.858;9.184;2023-02-28T10:20:44;11.27;;;6.80;;
9218;SDS011;4644;48.858;9.184;2023-02-28T10:23:13;9.63;;;6.77;;
9218;SDS011;4644;48.858;9.184;2023-02-28T10:25:47;8.93;;;6.63;;
9218;SDS011;4644;48.858;9.184;2023-02-28T10:28:20;11.73;;;6.90;;
9218;SDS011;4644;48.858;9.184;2023-02-28T10:30:48;10.03;;;7.03;;
9218;SDS011;4644;48.858;9.184;2023-02-28T10:33:21;8.07;;;6.23;;
9218;SDS011;4644;48.858;9.184;2023-02-28T10:35:51;9.73;;;6.50;;
9218;SDS011;4644;48.858;9.184;2023-02-28T10:38:20;9.43;;;6.40;;
9218;SDS011;4644;48.858;9.184;2023-02-28T10:40:48;7.97;;;6.50;;
9218;SDS011;4644;48.858;9.184;2023-02-28T10:43:19;8.33;;;6.20;;
9218;SDS011;4644;48.858;9.184;2023-02-28T10:45:55;8.77;;;5.47;;
9218;SDS011;4644;48.858;9.184;2023-02-28T10:48:36;9.07;;;6.80;;
9218;SDS011;4644;48.858;9.184;2023-02-28T10:51:07;9.63;;;6.80;;
9218;SDS011;4644;48.858;9.184;2023-02-28T10:53:37;8.27;;;6.30;;
9218;SDS011;4644;48.858;9.184;2023-02-28T10:56:16;8.70;;;6.43;;
9218;SDS011;4644;48.858;9.184;2023-02-28T10:58:47;8.93;;;6.07;;
9218;SDS011;4644;48.858;9.184;2023-02-28T11:01:18;9.00;;;6.63;;
9218;SDS011;4644;48.858;9.184;2023-02-28T11:03:46;10.87;;;6.67;;
9218;SDS011;4644;48.858;9.184;2023-02-28T11:06:16;9.87;;;6.60;;
9218;SDS011;4644;48.858;9.184;2023-02-28T11:08:46;10.80;;;7.60;;
9218;SDS011;4644;48.858;9.184;2023-02-28T11:11:16;9.20;;;7.10;;
9218;SDS011;4644;48.858;9.184;2023-02-28T11:13:44;9.20;;;6.40;;
9218;SDS011;4644;48.858;9.184;2023-02-28T11:16:14;8.93;;;7.00;;
9218;SDS011;4644;48.858;9.184;2023-02-28T11:18:42;7.50;;;6.30;;
9218;SDS011;4644;48.858;9.184;2023-02-28T11:21:21;8.57;;;6.43;;
9218;SDS011;4644;48.858;9.184;2023-02-28T11:23:51;10.03;;;6.03;;
9218;SDS011;4644;48.858;9.184;2023-02-28T11:26:35;9.00;;;6.63;;
9218;SDS011;4644;48.858;9.184;2023-02-28T11:29:09;8.63;;;6.13;;
9218;SDS011;4644;48.858;9.184;2023-02-28T11:31:39;9.77;;;6.27;;
9218;SDS011;4644;48.858;9.184;2023-02-28T11:34:23;9.87;;;6.70;;
9218;SDS011;4644;48.858;9.184;2023-02-28T11:36:54;8.47;;;6.23;;
9218;SDS011;4644;48.858;9.184;2023-02-28T11:39:23;7.47;;;5.90;;
9218;SDS011;4644;48.858;9.184;2023-02-28T11:42:01;7.33;;;6.20;;
9218;SDS011;4644;48.858;9.184;2023-02-28T11:44:50;9.63;;;6.93;;
9218;SDS011;4644;48.858;9.184;2023-02-28T11:47:31;8.83;;;6.07;;
9218;SDS011;4644;48.858;9.184;2023-02-28T11:50:07;8.60;;;6.00;;
9218;SDS011;4644;48.858;9.184;2023-02-28T11:52:59;9.33;;;6.83;;
9218;SDS011;4644;48.858;9.184;2023-02-28T11:55:31;7.40;;;6.00;;
9218;SDS011;4644;48.858;9.184;2023-02-28T11:58:11;8.70;;;6.27;;
9218;SDS011;4644;48.858;9.184;2023-02-28T12:00:57;8.27;;;5.90;;
9218;SDS011;4644;48.858;9.184;2023-02-28T12:03:39;8.93;;;6.37;;
9218;SDS011;4644;48.858;9.184;2023-02-28T12:06:15;9.57;;;6.63;;
9218;SDS011;4644;48.858;9.184;2023-02-28T12:08:53;8.87;;;6.73;;
9218;SDS011;4644;48.858;9.184;2023-02-28T12:11:31;8.47;;;5.87;;
9218;SDS011;4644;48.858;9.184;2023-02-28T12:14:14;8.23;;;5.90;;
9218;SDS011;4644;48.858;9.184;2023-02-28T12:17:13;7.30;;;6.50;;
9218;SDS011;4644;48.858;9.184;2023-02-28T12:19:56;7.23;;;5.87;;
9218;SDS011;4644;48.858;9.184;2023-02-28T12:22:32;7.33;;;6.53;;
9218;SDS011;4644;48.858;9.184;2023-02-28T12:28:10;8.17;;;5.80;;
9218;SDS011;4644;48.858;9.184;2023-02-28T12:30:41;6.77;;;5.63;;
9218;SDS011;4644;48.858;9.184;2023-02-28T12:33:14;6.23;;;5.60;;
9218;SDS011;4644;48.858;9.184;2023-02-28T12:35:44;8.63;;;6.57;;
9218;SDS011;4644;48.858;9.184;2023-02-28T12:38:18;7.10;;;6.37;;
9218;SDS011;4644;48.858;9.184;2023-02-28T12:40:50;8.23;;;5.73;;
9218;SDS011;4644;48.858;9.184;2023-02-28T12:43:20;8.00;;;6.03;;
9218;SDS011;4644;48.858;9.184;2023-02-28T12:45:51;7.50;;;6.17;;
9218;SDS011;4644;48.858;9.184;2023-02-28T12:48:24;8.43;;;6.17;;
9218;SDS011;4644;48.858;9.184;2023-02-28T12:50:55;9.53;;;6.63;;
9218;SDS011;4644;48.858;9.184;2023-02-28T12:53:25;9.23;;;5.87;;
9218;SDS011;4644;48.858;9.184;2023-02-28T12:56:02;6.93;;;6.00;;
9218;SDS011;4644;48.858;9.184;2023-02-28T12:58:36;6.87;;;5.83;;
9218;SDS011;4644;48.858;9.184;2023-02-28T13:01:13;7.23;;;6.00;;
9218;SDS011;4644;48.858;9.184;2023-02-28T13:04:21;9.70;;;5.93;;
9218;SDS011;4644;48.858;9.184;2023-02-28T13:07:16;7.37;;;5.80;;
9218;SDS011;4644;48.858;9.184;2023-02-28T13:10:09;7.63;;;5.97;;
9218;SDS011;4644;48.858;9.184;2023-02-28T13:12:38;7.00;;;5.87;;
9218;SDS011;4644;48.858;9.184;2023-02-28T13:15:16;6.70;;;5.20;;
9218;SDS011;4644;48.858;9.184;2023-02-28T13:17:48;8.13;;;5.87;;
9218;SDS011;4644;48.858;9.184;2023-02-28T13:20:18;7.03;;;5.80;;
9218;SDS011;4644;48.858;9.184;2023-02-28T13:22:47;8.70;;;6.73;;
9218;SDS011;4644;48.858;9.184;2023-02-28T13:31:33;7.57;;;5.90;;
9218;SDS011;4644;48.858;9.184;2023-02-28T13:34:38;7.63;;;5.70;;
9218;SDS011;4644;48.858;9.184;2023-02-28T13:43:02;7.20;;;6.20;;
9218;SDS011;4644;48.858;9.184;2023-02-28T13:45:30;10.07;;;5.50;;
9218;SDS011;4644;48.858;9.184;2023-02-28T13:48:04;9.30;;;6.33;;
9218;SDS011;4644;48.858;9.184;2023-02-28T13:50:42;7.13;;;5.67;;
9218;SDS011;4644;48.858;9.184;2023-02-28T13:56:19;10.33;;;5.70;;
9218;SDS011;4644;48.858;9.184;2023-02-28T13:58:54;8.73;;;6.57;;
9218;SDS011;4644;48.858;9.184;2023-02-28T14:01:34;13.43;;;5.90;;
9218;SDS011;4644;48.858;9.184;2023-02-28T14:04:25;7.20;;;6.20;;
9218;SDS011;4644;48.858;9.184;2023-02-28T14:07:15;9.27;;;6.20;;
9218;SDS011;4644;48.858;9.184;2023-02-28T14:09:46;11.10;;;6.60;;
9218;SDS011;4644;48.858;9.184;2023-02-28T14:18:25;8.27;;;6.20;;
9218;SDS011;4644;48.858;9.184;2023-02-28T14:20:59;8.13;;;6.13;;
9218;SDS011;4644;48.858;9.184;2023-02-28T14:23:43;7.60;;;5.70;;
9218;SDS011;4644;48.858;9.184;2023-02-28T14:26:58;7.13;;;5.87;;
9218;SDS011;4644;48.858;9.184;2023-02-28T14:30:15;9.80;;;6.30;;
9218;SDS011;4644;48.858;9.184;2023-02-28T14:33:08;8.10;;;6.33;;
9218;SDS011;4644;48.858;9.184;2023-02-28T14:38:41;6.97;;;6.27;;
9218;SDS011;4644;48.858;9.184;2023-02-28T14:41:16;7.40;;;6.43;;
9218;SDS011;4644;48.858;9.184;2023-02-28T14:43:49;7.97;;;6.50;;
9218;SDS011;4644;48.858;9.184;2023-02-28T14:46:18;8.67;;;6.23;;
9218;SDS011;4644;48.858;9.184;2023-02-28T14:48:47;7.73;;;6.10;;
9218;SDS011;4644;48.858;9.184;2023-02-28T14:51:29;6.87;;;6.07;;
9218;SDS011;4644;48.858;9.184;2023-02-28T14:53:59;6.63;;;5.77;;
9218;SDS011;4644;48.858;9.184;2023-02-28T14:56:30;7.53;;;5.97;;
9218;SDS011;4644;48.858;9.184;2023-02-28T14:59:00;8.03;;;6.73;;
9218;SDS011;4644;48.858;9.184;2023-02-28T15:01:27;8.17;;;6.40;;
9218;SDS011;4644;48.858;9.184;2023-02-28T15:03:57;7.27;;;6.50;;
9218;SDS011;4644;48.858;9.184;2023-02-28T15:06:28;8.50;;;6.30;;
9218;SDS011;4644;48.858;9.184;2023-02-28T15:11:40;9.33;;;6.77;;
9218;SDS011;4644;48.858;9.184;2023-02-28T15:14:13;10.27;;;7.40;;
9218;SDS011;4644;48.858;9.184;2023-02-28T15:16:44;7.17;;;6.20;;
9218;SDS011;4644;48.858;9.184;2023-02-28T15:19:18;7.77;;;6.07;;
9218;SDS011;4644;48.858;9.184;2023-02-28T15:21:51;8.77;;;6.70;;
9218;SDS011;4644;48.858;9.184;2023-02-28T15:24:27;8.57;;;6.57;;
9218;SDS011;4644;48.858;9.184;2023-02-28T15:27:03;7.50;;;6.47;;
9218;SDS011;4644;48.858;9.184;2023-02-28T15:29:34;7.93;;;6.93;;
9218;SDS011;4644;48.858;9.184;2023-02-28T15:32:16;8.00;;;5.87;;
9218;SDS011;4644;48.858;9.184;2023-02-28T15:34:52;8.20;;;7.03;;
9218;SDS011;4644;48.858;9.184;2023-02-28T15:37:32;8.87;;;6.73;;
9218;SDS011;4644;48.858;9.184;2023-02-28T15:40:10;7.33;;;6.10;;
9218;SDS011;4644;48.858;9.184;2023-02-28T15:42:39;7.13;;;5.93;;
9218;SDS011;4644;48.858;9.184;2023-02-28T15:47:54;8.63;;;7.07;;
9218;SDS011;4644;48.858;9.184;2023-02-28T15:50:22;9.50;;;6.77;;
9218;SDS011;4644;48.858;9.184;2023-02-28T15:52:51;7.43;;;6.27;;
9218;SDS011;4644;48.858;9.184;2023-02-28T15:55:19;7.80;;;6.43;;
9218;SDS011;4644;48.858;9.184;2023-02-28T15:57:48;9.67;;;7.33;;
9218;SDS011;4644;48.858;9.184;2023-02-28T16:00:18;9.57;;;6.90;;
9218;SDS011;4644;48.858;9.184;2023-02-28T16:02:48;9.00;;;6.37;;
9218;SDS011;4644;48.858;9.184;2023-02-28T16:05:19;9.07;;;7.03;;
9218;SDS011;4644;48.858;9.184;2023-02-28T16:07:54;8.87;;;7.23;;
9218;SDS011;4644;48.858;9.184;2023-02-28T16:10:22;8.67;;;6.37;;
9218;SDS011;4644;48.858;9.184;2023-02-28T16:12:52;8.07;;;6.60;;
9218;SDS011;4644;48.858;9.184;2023-02-28T16:15:22;8.83;;;7.20;;
9218;SDS011;4644;48.858;9.184;2023-02-28T16:17:51;9.50;;;6.90;;